Clinton, IA

4:48 AM CDT on June 28, 2017 (GMT -0500)
Clinton Municipal

Weather History for KCWI - January, 2015

Change the Weather History Date:

Thursday, January 8, 2015

  Actual Average Record
Temperature  
Mean Temperature 2 °F -  
Max Temperature 19 °F 24 °F 59 °F (2003)
Min Temperature -16 °F 6 °F -19 °F (1970)
Degree Days  
Heating Degree Days 64    
Moisture  
Dew Point -3 °F    
Average Humidity 77    
Maximum Humidity 100    
Minimum Humidity 64    
Precipitation  
Precipitation 0.00 in - - ()
Sea Level Pressure  
Sea Level Pressure 30.16 in    
Wind  
Wind Speed 14 mph (SW)    
Max Wind Speed 33 mph    
Max Gust Speed 41 mph    
Visibility 6 miles    
Events      
Averages and records for this station are not official NWS values.
T = Trace of Precipitation, MM = Missing Value Source: NWS Daily Summary

Daily Weather History Graph

Daily Weather History Graph

Search for Another Location

Airport or City:

Trip Planner

Search our weather history database for the weather conditions in past years. The results will help you decide how hot, cold, wet, or windy it might be!

Date:

Astronomy

Jan. 08, 2015 Rise Set
Actual Time 7:28 AM CST 4:47 PM CST
Civil Twilight 6:57 AM CST 5:18 PM CST
Nautical Twilight 6:22 AM CST 5:53 PM CST
Astronomical Twilight 5:49 AM CST 6:27 PM CST
Moon 8:30 PM CST (1/8) 9:11 AM CST (1/8)
Length of Visible Light 10h 21m
Length of Day
9h 19m
Waning Gibbous, 89% of the Moon is Illuminated
Jan 8
Waning Gibbous
Jan 13
Last Quarter
Jan 20
New
Jan 26
First Quarter
Feb 3
Full

Hourly Weather History & Observations

Time (CST) Temp. Windchill Dew Point Humidity Pressure Visibility Wind Dir Wind Speed Gust Speed Precip Events Conditions
12:15 AM -14.8 °F -27.2 °F -20.2 °F 77% 30.68 in 10.0 mi WSW 4.6 mph - N/A   Clear
12:35 AM -14.8 °F -29.1 °F -14.8 °F 100% 30.66 in 10.0 mi West 5.8 mph - N/A   Clear
12:55 AM -14.8 °F -24.8 °F -20.2 °F 77% 30.65 in 10.0 mi SW 3.5 mph - N/A   Clear
1:15 AM -13.0 °F -22.7 °F -14.8 °F 92% 30.63 in 10.0 mi SW 3.5 mph - N/A   Clear
1:35 AM -16.6 °F -34.4 °F -25.6 °F 64% 30.63 in 10.0 mi WSW 8.1 mph - N/A   Clear
1:55 AM -14.8 °F -30.8 °F -20.2 °F 77% 30.62 in 10.0 mi SW 6.9 mph - N/A   Clear
2:15 AM -14.8 °F -24.8 °F -18.4 °F 84% 30.62 in 10.0 mi WSW 3.5 mph - N/A   Clear
2:35 AM -14.8 °F -24.8 °F -18.4 °F 84% 30.61 in 10.0 mi WSW 3.5 mph - N/A   Clear
2:55 AM -14.8 °F -27.2 °F -20.2 °F 77% 30.60 in 10.0 mi WSW 4.6 mph - N/A   Clear
3:15 AM -14.8 °F -27.2 °F -14.8 °F 100% 30.59 in 10.0 mi WSW 4.6 mph - N/A   Clear
3:35 AM -11.2 °F -23.0 °F -16.6 °F 77% 30.57 in 10.0 mi WSW 4.6 mph - N/A   Clear
3:55 AM -9.4 °F -26.8 °F -13.0 °F 84% 30.55 in 10.0 mi WSW 9.2 mph - N/A   Clear
4:15 AM -9.4 °F -26.8 °F -13.0 °F 84% 30.53 in 10.0 mi SW 9.2 mph - N/A   Clear
4:35 AM -7.6 °F -23.4 °F -11.2 °F 84% 30.50 in 10.0 mi SW 8.1 mph - N/A   Clear
4:55 AM -7.6 °F -25.7 °F -13.0 °F 77% 30.48 in 10.0 mi SW 10.4 mph - N/A   Clear
5:15 AM -7.6 °F -24.6 °F -11.2 °F 84% 30.46 in 10.0 mi SW 9.2 mph - N/A   Clear
5:35 AM -7.6 °F -25.7 °F -11.2 °F 84% 30.46 in 10.0 mi SW 10.4 mph - N/A   Clear
5:55 AM -5.8 °F -26.0 °F -9.4 °F 84% 30.42 in 10.0 mi SSW 13.8 mph - N/A   Clear
6:15 AM -5.8 °F -25.2 °F -9.4 °F 84% 30.40 in 10.0 mi SSW 12.7 mph - N/A   Clear
6:35 AM -5.8 °F -23.4 °F -11.2 °F 77% 30.39 in 10.0 mi SSW 10.4 mph - N/A   Clear
6:55 AM -5.8 °F -23.4 °F -9.4 °F 84% 30.37 in 10.0 mi South 10.4 mph - N/A   Clear
7:15 AM -4.0 °F -22.1 °F -9.4 °F 78% 30.35 in 10.0 mi South 11.5 mph - N/A   Clear
7:35 AM -4.0 °F -24.5 °F -9.4 °F 78% 30.33 in 10.0 mi South 15.0 mph - N/A   Mostly Cloudy
7:55 AM -2.2 °F -18.9 °F -9.4 °F 71% 30.32 in 10.0 mi South 10.4 mph - N/A   Mostly Cloudy
8:15 AM -2.2 °F -20.7 °F -9.4 °F 71% 30.30 in 10.0 mi South 12.7 mph - N/A   Mostly Cloudy
8:35 AM -0.4 °F -20.5 °F -7.6 °F 72% 30.27 in 10.0 mi South 16.1 mph - N/A   Mostly Cloudy
8:55 AM -0.4 °F -17.6 °F -7.6 °F 72% 30.28 in 10.0 mi South 11.5 mph - N/A   Mostly Cloudy
9:15 AM -0.4 °F -21.7 °F -5.8 °F 78% 30.25 in 10.0 mi South 18.4 mph 21.9 mph N/A   Overcast
9:35 AM 1.4 °F -19.4 °F -5.8 °F 72% 30.22 in 10.0 mi South 18.4 mph - N/A   Overcast
9:55 AM 1.4 °F -22.3 °F -5.8 °F 72% 30.18 in 10.0 mi South 25.3 mph - N/A   Overcast
10:15 AM 1.4 °F -21.0 °F -4.0 °F 78% 30.16 in 10.0 mi South 21.9 mph 25.3 mph N/A   Overcast
10:35 AM 3.2 °F -19.0 °F -4.0 °F 72% 30.14 in 10.0 mi South 23.0 mph - N/A   Overcast
10:55 AM 3.2 °F -18.6 °F -4.0 °F 72% 30.12 in 7.0 mi South 21.9 mph 26.5 mph N/A   Overcast
11:15 AM 3.2 °F -19.0 °F -2.2 °F 78% 30.08 in 9.0 mi South 23.0 mph 28.8 mph N/A   Overcast
11:35 AM 5.0 °F -17.1 °F -2.2 °F 72% 30.03 in 6.0 mi South 24.2 mph - N/A   Overcast
11:55 AM 6.8 °F -13.8 °F -0.4 °F 72% 29.99 in 5.0 mi South 21.9 mph - N/A   Overcast
12:15 PM 6.8 °F -15.5 °F -2.2 °F 67% 29.99 in 5.0 mi SSW 26.5 mph 29.9 mph N/A   Mostly Cloudy
12:35 PM 6.8 °F -14.7 °F 1.4 °F 79% 29.97 in 0.2 mi SSW 24.2 mph 28.8 mph N/A   Overcast
12:55 PM 6.8 °F -14.3 °F 1.4 °F 79% 29.95 in 0.5 mi SSW 23.0 mph - N/A   Overcast
1:15 PM 8.6 °F -8.9 °F 1.4 °F 73% 29.94 in 1.0 mi SSW 16.1 mph 23.0 mph N/A   Overcast
1:35 PM 8.6 °F -11.4 °F 1.4 °F 73% 29.92 in 4.0 mi SSW 21.9 mph 25.3 mph N/A   Overcast
1:55 PM 8.6 °F -10.0 °F 3.2 °F 79% 29.90 in 4.0 mi SSW 18.4 mph - N/A   Overcast
2:15 PM 10.4 °F -8.6 °F 3.2 °F 73% 29.87 in 4.0 mi SSW 20.7 mph - N/A   Overcast
2:35 PM 12.2 °F -6.7 °F 3.2 °F 67% 29.87 in 1.8 mi SW 21.9 mph 28.8 mph N/A   Overcast
2:55 PM 12.2 °F -7.1 °F 5.0 °F 73% 29.85 in 1.8 mi SW 23.0 mph 32.2 mph N/A   Overcast
3:15 PM 12.2 °F -7.1 °F 3.2 °F 67% 29.86 in 3.0 mi SW 23.0 mph - N/A   Overcast
3:35 PM 12.2 °F -7.9 °F 5.0 °F 73% 29.84 in 4.0 mi SW 25.3 mph 29.9 mph N/A   Overcast
3:55 PM 14.0 °F -3.4 °F 5.0 °F 67% 29.84 in 3.0 mi SW 19.6 mph 28.8 mph N/A   Overcast
4:15 PM 15.8 °F -3.1 °F 6.8 °F 68% 29.84 in 5.0 mi SW 25.3 mph 28.8 mph N/A   Overcast
4:35 PM 15.8 °F -2.7 °F 6.8 °F 68% 29.83 in 3.0 mi SW 24.2 mph 29.9 mph N/A   Overcast
4:55 PM 15.8 °F -2.7 °F 8.6 °F 73% 29.82 in 4.0 mi WSW 24.2 mph 29.9 mph N/A   Overcast
5:15 PM 15.8 °F -2.7 °F 10.4 °F 79% 29.82 in 2.5 mi WSW 24.2 mph 29.9 mph N/A   Overcast
5:35 PM 17.6 °F 0.5 °F 12.2 °F 79% 29.83 in 4.0 mi WSW 21.9 mph - N/A   Overcast
5:55 PM 17.6 °F 0.1 °F 12.2 °F 79% 29.83 in 4.0 mi WSW 23.0 mph 26.5 mph N/A   Overcast
6:15 PM 17.6 °F -0.6 °F 14.0 °F 86% 29.83 in 2.0 mi WSW 25.3 mph 31.1 mph N/A   Overcast
6:35 PM 19.4 °F 1.4 °F 15.8 °F 86% 29.85 in 1.5 mi WNW 26.5 mph 34.5 mph N/A   Overcast
6:55 PM 17.6 °F 0.1 °F 12.2 °F 79% 29.86 in 2.5 mi WNW 23.0 mph 34.5 mph N/A   Scattered Clouds
7:15 PM 17.6 °F -1.6 °F 12.2 °F 79% 29.87 in 1.0 mi WNW 28.8 mph 40.3 mph N/A   Overcast
7:35 PM 15.8 °F -5.2 °F 10.4 °F 79% 29.90 in 0.5 mi WNW 33.4 mph 41.4 mph N/A   Mostly Cloudy
7:55 PM 14.0 °F -6.5 °F 8.6 °F 79% 29.91 in 1.2 mi WNW 28.8 mph 33.4 mph N/A   Mostly Cloudy
8:15 PM 12.2 °F -8.2 °F 6.8 °F 79% 29.93 in 3.0 mi WNW 26.5 mph 34.5 mph N/A   Scattered Clouds
8:35 PM 12.2 °F -7.9 °F 5.0 °F 73% 29.95 in 4.0 mi WNW 25.3 mph 29.9 mph N/A   Mostly Cloudy
8:55 PM 12.2 °F -7.9 °F 5.0 °F 73% 29.96 in 5.0 mi WNW 25.3 mph 31.1 mph N/A   Scattered Clouds
9:15 PM 12.2 °F -7.1 °F 5.0 °F 73% 29.97 in 3.0 mi NW 23.0 mph - N/A   Partly Cloudy
9:35 PM 10.4 °F -10.3 °F 3.2 °F 73% 29.98 in 5.0 mi NW 25.3 mph 34.5 mph N/A   Clear
9:55 PM 10.4 °F -9.9 °F 3.2 °F 73% 30.00 in 3.0 mi NW 24.2 mph 33.4 mph N/A   Clear
10:15 PM 10.4 °F -11.0 °F 3.2 °F 73% 30.01 in 3.0 mi NW 27.6 mph 33.4 mph N/A   Clear
10:35 PM 10.4 °F -10.7 °F 3.2 °F 73% 30.03 in 2.5 mi WNW 26.5 mph 35.7 mph N/A   Partly Cloudy
10:55 PM 10.4 °F -11.0 °F 3.2 °F 73% 30.03 in 2.5 mi WNW 27.6 mph 34.5 mph N/A   Mostly Cloudy
11:15 PM 8.6 °F -12.3 °F 3.2 °F 79% 30.05 in 3.0 mi NW 24.2 mph - N/A   Mostly Cloudy
11:35 PM 8.6 °F -12.7 °F 3.2 °F 79% 30.06 in 1.8 mi WNW 25.3 mph - N/A   Overcast
11:55 PM 8.6 °F -13.1 °F 3.2 °F 79% 30.07 in 1.8 mi NW 26.5 mph 35.7 mph N/A   Mostly Cloudy